Time;durP1;ratioP1;P1;durP2;ratioP2;P2;SDS_P1;SDS_P2;PMS_P1;PMS_P2;Temp;Humidity;BMP_temperature;BMP_pressure;BME280_temperature;BME280_humidity;BME280_pressure;Samples;Min_cycle;Max_cycle;Signal;HPM_P1;HPM_P2
2022/11/22 00:01:24;;;;;;;6.40;4.25;;;8.90;99.90;;;;;;5093335;28;20383;-77
2022/11/22 00:03:50;;;;;;;5.55;3.67;;;8.90;99.90;;;;;;5092022;28;20107;-77
2022/11/22 00:06:15;;;;;;;5.43;4.00;;;8.90;99.90;;;;;;5112787;28;20024;-77
2022/11/22 00:08:41;;;;;;;5.13;3.25;;;8.90;99.90;;;;;;5133698;27;20050;-77
2022/11/22 00:11:07;;;;;;;4.97;2.85;;;8.80;99.90;;;;;;5133524;27;20027;-78
2022/11/22 00:13:32;;;;;;;2.33;2.17;;;8.90;99.90;;;;;;5133840;28;20413;-77
2022/11/22 00:16:03;;;;;;;5.47;2.38;;;8.90;99.90;;;;;;5113873;28;20039;-78
2022/11/22 00:18:29;;;;;;;2.65;2.47;;;8.90;99.90;;;;;;5108335;28;20144;-78
2022/11/22 00:20:55;;;;;;;2.50;2.10;;;9.00;99.90;;;;;;5103004;28;20028;-78
2022/11/22 00:23:21;;;;;;;2.85;2.40;;;9.00;99.90;;;;;;5091519;28;20098;-78
2022/11/22 00:25:47;;;;;;;2.47;2.20;;;9.00;99.90;;;;;;5091409;28;20031;-79
2022/11/22 00:28:13;;;;;;;2.75;2.05;;;9.10;99.90;;;;;;5091311;28;20032;-79
2022/11/22 00:30:38;;;;;;;3.03;2.20;;;9.10;99.90;;;;;;5125795;27;20035;-78
2022/11/22 00:33:04;;;;;;;2.30;2.20;;;9.10;99.90;;;;;;5115551;28;20152;-78
2022/11/22 00:35:30;;;;;;;1.80;1.70;;;9.10;99.90;;;;;;5125495;28;20026;-78
2022/11/22 00:37:55;;;;;;;1.90;1.80;;;9.10;99.90;;;;;;5131347;28;20061;-78
2022/11/22 00:40:21;;;;;;;2.83;1.50;;;9.20;99.90;;;;;;5101016;28;20038;-78
2022/11/22 00:42:47;;;;;;;2.17;1.95;;;9.20;99.90;;;;;;5100885;28;20830;-78
2022/11/22 00:45:12;;;;;;;2.45;1.50;;;9.20;99.90;;;;;;5093306;28;20020;-80
2022/11/22 00:47:38;;;;;;;1.70;1.60;;;9.20;99.90;;;;;;5091576;28;20365;-80
2022/11/22 00:50:04;;;;;;;1.42;1.33;;;9.20;99.90;;;;;;5092792;28;20028;-81
2022/11/22 00:52:30;;;;;;;77.20;52.50;;;9.20;99.90;;;;;;5092635;28;20036;-80
2022/11/22 00:54:56;;;;;;;3.13;2.78;;;9.30;99.90;;;;;;5092497;28;20559;-80
2022/11/22 00:57:22;;;;;;;2.45;2.25;;;9.30;99.90;;;;;;5091389;28;20031;-81
2022/11/22 00:59:47;;;;;;;3.22;2.45;;;9.30;99.90;;;;;;5092529;28;20124;-81
2022/11/22 01:02:13;;;;;;;2.55;2.35;;;9.20;99.90;;;;;;5091315;28;20106;-81
2022/11/22 01:04:39;;;;;;;3.17;2.78;;;9.20;99.90;;;;;;5091294;28;20020;-81
2022/11/22 01:07:04;;;;;;;3.10;2.80;;;9.20;99.90;;;;;;5091409;28;20028;-81
2022/11/22 01:09:30;;;;;;;3.40;3.10;;;9.20;99.90;;;;;;5091012;28;20048;-81
2022/11/22 01:11:56;;;;;;;2.90;2.70;;;9.10;99.90;;;;;;5092668;28;20028;-80
2022/11/22 01:14:21;;;;;;;3.72;3.42;;;9.10;99.90;;;;;;5091189;28;20024;-80
2022/11/22 01:16:47;;;;;;;4.07;3.67;;;9.00;99.90;;;;;;5092481;28;20024;-80
2022/11/22 01:19:13;;;;;;;3.03;2.65;;;9.00;99.90;;;;;;5091035;28;20024;-80
2022/11/22 01:21:39;;;;;;;3.53;2.88;;;9.00;99.90;;;;;;5091337;28;20192;-81
2022/11/22 01:24:05;;;;;;;4.22;2.80;;;9.00;99.90;;;;;;5095751;28;20023;-80
2022/11/22 01:26:32;;;;;;;2.75;2.55;;;9.00;99.90;;;;;;5094619;28;20027;-80
2022/11/22 01:28:58;;;;;;;3.72;2.38;;;9.00;99.90;;;;;;5095965;28;20028;-79
2022/11/22 01:34:48;;;;;;;2.10;2.00;;;9.00;99.90;;;;;;5095567;28;20018;-80
2022/11/22 01:37:16;;;;;;;1.65;1.55;;;9.00;99.90;;;;;;5106324;28;20087;-80
2022/11/22 01:39:41;;;;;;;3.70;2.00;;;9.00;99.90;;;;;;5115266;28;20107;-79
2022/11/22 01:42:11;;;;;;;1.98;1.75;;;9.00;99.90;;;;;;5113889;28;20039;-78
2022/11/22 01:44:41;;;;;;;2.28;2.10;;;9.00;99.90;;;;;;5115830;28;20019;-79
2022/11/22 01:47:13;;;;;;;2.42;1.52;;;9.00;99.90;;;;;;5114335;28;20016;-80
2022/11/22 01:49:52;;;;;;;2.63;2.17;;;9.00;99.90;;;;;;5114645;28;20496;-79
2022/11/22 01:52:22;;;;;;;2.40;1.88;;;9.00;99.90;;;;;;5114479;28;20024;-80
2022/11/22 01:54:55;;;;;;;2.05;1.88;;;9.00;99.90;;;;;;5114393;28;20062;-80
2022/11/22 01:57:25;;;;;;;4.10;1.88;;;9.00;99.90;;;;;;5114351;28;20035;-80
2022/11/22 02:00:00;;;;;;;2.55;2.38;;;9.00;99.90;;;;;;5114292;28;20046;-80
2022/11/22 02:02:27;;;;;;;2.05;1.80;;;8.90;99.90;;;;;;5114329;28;20027;-80
2022/11/22 02:04:56;;;;;;;2.72;2.40;;;8.90;99.90;;;;;;5114298;28;20023;-80
2022/11/22 02:07:26;;;;;;;2.72;2.53;;;8.90;99.90;;;;;;5114090;28;20028;-79
2022/11/22 02:09:52;;;;;;;3.33;3.03;;;9.00;99.90;;;;;;5115452;28;20039;-80
2022/11/22 02:12:21;;;;;;;5.45;3.03;;;9.00;99.90;;;;;;5115514;28;20065;-80
2022/11/22 02:14:48;;;;;;;3.40;3.05;;;9.00;99.90;;;;;;5114231;28;20053;-80
2022/11/22 02:17:14;;;;;;;2.90;2.70;;;9.00;99.90;;;;;;5115234;28;20089;-80
2022/11/22 02:19:43;;;;;;;2.80;2.50;;;9.00;99.90;;;;;;5115191;28;20417;-80
2022/11/22 02:22:18;;;;;;;3.03;2.83;;;9.00;99.90;;;;;;5115264;28;20020;-81
2022/11/22 02:25:05;;;;;;;3.15;2.85;;;9.00;99.90;;;;;;5113923;28;20027;-80
2022/11/22 02:27:31;;;;;;;2.90;2.70;;;9.00;99.90;;;;;;5113714;28;20031;-80
2022/11/22 02:29:57;;;;;;;3.15;2.95;;;9.00;99.90;;;;;;5113736;28;20126;-80
2022/11/22 02:32:23;;;;;;;3.03;2.83;;;9.10;99.90;;;;;;5114995;28;20028;-80
2022/11/22 02:34:50;;;;;;;3.03;2.67;;;9.10;99.90;;;;;;5114851;28;20020;-80
2022/11/22 02:37:24;;;;;;;2.80;2.60;;;9.10;99.90;;;;;;5114912;28;20027;-81
2022/11/22 02:39:56;;;;;;;2.33;2.15;;;9.10;99.90;;;;;;5113440;28;20028;-81
2022/11/22 02:42:24;;;;;;;2.47;2.28;;;9.20;99.90;;;;;;5113597;28;20438;-81
2022/11/22 02:44:49;;;;;;;2.65;2.45;;;9.10;99.90;;;;;;5113492;28;20031;-81
2022/11/22 02:47:15;;;;;;;2.58;2.38;;;9.10;99.90;;;;;;5114547;28;20024;-80
2022/11/22 02:49:41;;;;;;;2.60;2.40;;;9.10;99.90;;;;;;5113305;28;20031;-80
2022/11/22 02:52:07;;;;;;;2.60;2.40;;;9.10;99.90;;;;;;5113365;28;20027;-80
2022/11/22 02:54:32;;;;;;;2.20;2.10;;;9.10;99.90;;;;;;5114685;28;20039;-80
2022/11/22 02:56:58;;;;;;;2.42;2.33;;;9.10;99.90;;;;;;5113264;28;20027;-80
2022/11/22 02:59:24;;;;;;;2.00;1.90;;;9.10;99.90;;;;;;5096694;28;20424;-81
2022/11/22 03:01:50;;;;;;;3.13;2.80;;;9.10;99.90;;;;;;5126902;27;20031;-80
2022/11/22 03:04:23;;;;;;;2.38;2.28;;;9.10;99.90;;;;;;5092559;28;20031;-80
2022/11/22 03:06:55;;;;;;;2.60;2.40;;;9.10;99.90;;;;;;5093970;28;20028;-80
2022/11/22 03:09:22;;;;;;;;;;;9.10;99.90;;;;;;5092896;28;20048;-81
2022/11/22 03:11:48;;;;;;;2.50;2.10;;;9.10;99.90;;;;;;5092623;28;19907;-81
2022/11/22 03:14:14;;;;;;;2.70;2.50;;;9.10;99.90;;;;;;5094389;28;20560;-80
2022/11/22 03:16:44;;;;;;;2.15;2.05;;;9.10;99.90;;;;;;5092287;28;20372;-80
2022/11/22 03:19:10;;;;;;;2.67;2.50;;;9.10;99.90;;;;;;5092322;28;20036;-80
2022/11/22 03:21:36;;;;;;;4.57;2.70;;;9.10;99.90;;;;;;5092363;28;20392;-80
2022/11/22 03:24:02;;;;;;;2.67;2.47;;;9.10;99.90;;;;;;5092231;28;20027;-80
2022/11/22 03:26:28;;;;;;;2.60;2.40;;;9.10;99.90;;;;;;5092159;28;20029;-80
2022/11/22 03:28:54;;;;;;;2.53;2.33;;;9.10;99.90;;;;;;5092246;28;20116;-80
2022/11/22 03:31:20;;;;;;;2.25;2.15;;;9.00;99.90;;;;;;5092076;28;20081;-80
2022/11/22 03:33:45;;;;;;;2.13;2.03;;;9.00;99.90;;;;;;5092162;28;20016;-80
2022/11/22 03:36:11;;;;;;;2.25;2.15;;;9.00;99.90;;;;;;5093267;28;20543;-81
2022/11/22 03:38:37;;;;;;;3.15;2.60;;;8.90;99.90;;;;;;5104043;28;20028;-80
2022/11/22 03:41:03;;;;;;;2.65;2.17;;;8.90;99.90;;;;;;5112400;28;20160;-80
2022/11/22 03:43:28;;;;;;;4.40;2.15;;;8.90;99.90;;;;;;5113589;28;20016;-80
2022/11/22 03:45:54;;;;;;;2.22;2.05;;;8.80;99.90;;;;;;5112952;28;20073;-79
2022/11/22 03:48:20;;;;;;;2.58;2.47;;;8.80;99.90;;;;;;5113608;28;20486;-80
2022/11/22 03:50:45;;;;;;;2.38;2.28;;;8.80;99.90;;;;;;5112237;28;20020;-80
2022/11/22 03:53:12;;;;;;;2.63;2.42;;;8.70;99.90;;;;;;5112206;28;20034;-81
2022/11/22 03:55:38;;;;;;;1.92;1.80;;;8.70;99.90;;;;;;5113550;28;20128;-79
2022/11/22 03:58:04;;;;;;;2.75;2.55;;;8.70;99.90;;;;;;5113259;28;20027;-79
2022/11/22 04:00:30;;;;;;;2.38;2.00;;;8.70;99.90;;;;;;5113187;28;20040;-78
2022/11/22 04:02:56;;;;;;;2.00;1.90;;;8.70;99.90;;;;;;5113353;28;20020;-79
2022/11/22 04:05:21;;;;;;;1.88;1.77;;;8.60;99.90;;;;;;5112022;28;20388;-79
2022/11/22 04:07:47;;;;;;;2.17;1.90;;;8.60;99.90;;;;;;5113126;28;20044;-78
2022/11/22 04:10:13;;;;;;;1.67;1.58;;;8.60;99.90;;;;;;5113390;28;20398;-79
2022/11/22 04:12:39;;;;;;;1.92;1.83;;;8.50;99.90;;;;;;5112043;28;20028;-79
2022/11/22 04:15:05;;;;;;;1.98;1.88;;;8.50;99.90;;;;;;5111955;28;20023;-79
2022/11/22 04:17:40;;;;;;;1.95;1.85;;;8.50;99.90;;;;;;5111929;28;20039;-80
2022/11/22 04:22:56;;;;;;;1.80;1.70;;;8.40;99.90;;;;;;5113431;28;20057;-80
2022/11/22 04:25:22;;;;;;;2.60;1.58;;;8.40;99.90;;;;;;5111861;28;20160;-80
2022/11/22 04:27:48;;;;;;;1.45;1.35;;;8.40;99.90;;;;;;5108974;28;20024;-80
2022/11/22 04:30:14;;;;;;;1.92;1.83;;;8.40;99.90;;;;;;5091549;28;20039;-80
2022/11/22 04:32:46;;;;;;;4.03;1.48;;;8.40;99.90;;;;;;5091410;28;20392;-80
2022/11/22 04:35:14;;;;;;;1.60;1.50;;;8.30;99.90;;;;;;5091478;28;20036;-80
2022/11/22 04:37:41;;;;;;;1.95;1.48;;;8.30;99.90;;;;;;5091300;28;20085;-80
2022/11/22 04:40:07;;;;;;;1.70;1.60;;;8.40;99.90;;;;;;5091270;28;20082;-80
2022/11/22 04:45:17;;;;;;;4.82;1.30;;;8.40;99.90;;;;;;5092879;28;20441;-79
2022/11/22 04:47:58;;;;;;;1.42;1.30;;;8.50;99.90;;;;;;5092522;28;20012;-79
2022/11/22 04:53:08;;;;;;;1.67;0.90;;;8.50;99.90;;;;;;5092855;28;20047;-78
2022/11/22 04:55:34;;;;;;;1.20;1.08;;;8.60;99.90;;;;;;5091260;28;20024;-80
2022/11/22 04:58:00;;;;;;;1.42;1.25;;;8.60;99.90;;;;;;5094343;28;20663;-79
2022/11/22 05:00:27;;;;;;;2.08;1.20;;;8.70;99.90;;;;;;5095000;28;20052;-80
2022/11/22 05:02:53;;;;;;;1.30;1.30;;;8.60;99.90;;;;;;5095026;28;20020;-80
2022/11/22 05:05:19;;;;;;;1.73;1.63;;;8.50;99.90;;;;;;5096186;28;20043;-80
2022/11/22 05:07:44;;;;;;;1.70;1.38;;;8.40;99.90;;;;;;5094603;28;20484;-80
2022/11/22 05:10:10;;;;;;;1.50;1.30;;;8.40;99.90;;;;;;5094881;28;20032;-80
2022/11/22 05:12:53;;;;;;;1.90;1.70;;;8.40;99.90;;;;;;5095275;28;20475;-78
2022/11/22 05:15:19;;;;;;;1.20;1.10;;;8.40;99.90;;;;;;5095854;28;20053;-80
2022/11/22 05:17:45;;;;;;;1.23;1.20;;;8.20;99.90;;;;;;5094041;28;20118;-80
2022/11/22 05:20:10;;;;;;;1.50;1.40;;;8.20;99.90;;;;;;5094119;28;20047;-81
2022/11/22 05:25:21;;;;;;;1.15;1.05;;;8.20;99.90;;;;;;5096172;28;20035;-81
2022/11/22 05:27:47;;;;;;;1.90;1.70;;;8.20;99.90;;;;;;5097082;28;20107;-81
2022/11/22 05:30:13;;;;;;;1.48;1.38;;;8.10;99.90;;;;;;5115570;28;20023;-79
2022/11/22 05:32:38;;;;;;;1.10;1.10;;;8.10;99.90;;;;;;5117906;28;20034;-79
2022/11/22 05:35:04;;;;;;;1.30;1.20;;;8.10;99.90;;;;;;5114813;28;20368;-80
2022/11/22 05:40:23;;;;;;;1.05;0.90;;;8.00;99.90;;;;;;5115921;28;20055;-81
2022/11/22 05:42:49;;;;;;;1.00;1.00;;;8.10;99.90;;;;;;5114763;28;20020;-81
2022/11/22 05:45:15;;;;;;;2.05;1.08;;;8.10;99.90;;;;;;5114280;28;20085;-81
2022/11/22 05:47:41;;;;;;;1.00;0.95;;;8.10;99.90;;;;;;5115469;28;20088;-81
2022/11/22 05:50:15;;;;;;;0.90;0.90;;;8.10;99.90;;;;;;5114449;28;20527;-81
2022/11/22 05:52:41;;;;;;;1.30;1.20;;;8.10;99.90;;;;;;5114354;28;20058;-82
2022/11/22 05:55:07;;;;;;;1.00;0.90;;;8.10;99.90;;;;;;5114319;28;20055;-81
2022/11/22 05:57:33;;;;;;;2.42;0.95;;;8.00;99.90;;;;;;5113635;28;20442;-82
2022/11/22 05:59:59;;;;;;;1.08;0.90;;;8.10;99.90;;;;;;5095698;28;20024;-83
2022/11/22 06:02:25;;;;;;;0.98;0.93;;;8.10;99.90;;;;;;5093877;28;20056;-82
2022/11/22 06:04:50;;;;;;;0.77;0.77;;;8.10;99.90;;;;;;5095074;28;20026;-81
2022/11/22 06:07:16;;;;;;;1.10;1.00;;;8.00;99.90;;;;;;5093721;28;20103;-82
2022/11/22 06:09:45;;;;;;;0.70;0.70;;;8.10;99.90;;;;;;5096983;28;20085;-82
2022/11/22 06:12:11;;;;;;;1.63;1.15;;;8.10;99.90;;;;;;5114113;28;20170;-82
2022/11/22 06:14:37;;;;;;;0.85;0.85;;;8.00;99.90;;;;;;5114238;28;20118;-82
2022/11/22 06:17:03;;;;;;;0.57;0.57;;;8.00;99.90;;;;;;5114016;28;20027;-82
2022/11/22 06:19:28;;;;;;;0.70;0.70;;;8.00;99.90;;;;;;5113966;28;20028;-83
2022/11/22 06:21:54;;;;;;;0.70;0.70;;;8.00;99.90;;;;;;5113929;28;20020;-82
2022/11/22 06:24:20;;;;;;;1.33;0.80;;;8.00;99.90;;;;;;5113893;28;20046;-83
2022/11/22 06:26:45;;;;;;;0.90;0.90;;;8.00;99.90;;;;;;5115101;28;20016;-83
2022/11/22 06:29:11;;;;;;;0.60;0.60;;;8.10;99.90;;;;;;5113641;28;20039;-82
2022/11/22 06:31:37;;;;;;;0.82;0.77;;;8.00;99.90;;;;;;5113788;28;20375;-82
2022/11/22 06:34:02;;;;;;;0.65;0.65;;;8.00;99.90;;;;;;5113732;28;20024;-82
2022/11/22 06:36:30;;;;;;;0.60;0.60;;;8.00;99.90;;;;;;5113536;28;20080;-82
2022/11/22 06:38:56;;;;;;;0.77;0.70;;;8.00;99.90;;;;;;5113573;28;20051;-83
2022/11/22 06:41:27;;;;;;;0.60;0.60;;;8.00;99.90;;;;;;5113613;28;20607;-83
2022/11/22 06:43:56;;;;;;;0.93;0.70;;;8.00;99.90;;;;;;5114838;28;20016;-82
2022/11/22 06:46:23;;;;;;;0.70;0.70;;;8.00;99.90;;;;;;5113477;28;20020;-83
2022/11/22 06:48:49;;;;;;;0.50;0.50;;;8.00;99.90;;;;;;5113484;28;20119;-83
2022/11/22 06:51:21;;;;;;;0.50;0.50;;;8.00;99.90;;;;;;5113306;28;20076;-81
2022/11/22 06:53:48;;;;;;;0.73;0.50;;;8.00;99.90;;;;;;5113361;28;20024;-83
2022/11/22 06:56:16;;;;;;;1.33;0.57;;;7.90;99.90;;;;;;5114461;28;20035;-83
2022/11/22 06:58:44;;;;;;;0.63;0.52;;;7.90;99.90;;;;;;5114392;28;20042;-82
2022/11/22 07:01:21;;;;;;;0.60;0.60;;;7.90;99.90;;;;;;5114447;28;20506;-82
2022/11/22 07:03:48;;;;;;;1.00;0.50;;;7.90;99.90;;;;;;5113096;28;20024;-82
2022/11/22 07:06:15;;;;;;;0.50;0.50;;;8.00;99.90;;;;;;5113022;28;20024;-82
2022/11/22 07:08:42;;;;;;;0.60;0.60;;;8.00;99.90;;;;;;5112837;28;20044;-83
2022/11/22 07:11:25;;;;;;;0.45;0.40;;;8.00;99.90;;;;;;5114286;28;20019;-82
2022/11/22 07:13:52;;;;;;;0.45;0.45;;;8.00;99.90;;;;;;5112946;28;20027;-82
2022/11/22 07:16:20;;;;;;;0.93;0.60;;;8.00;99.90;;;;;;5114071;28;20016;-82
2022/11/22 07:18:46;;;;;;;0.60;0.60;;;8.00;99.90;;;;;;5112753;28;20019;-82
2022/11/22 07:21:18;;;;;;;0.60;0.60;;;8.00;99.90;;;;;;5113325;28;20497;-83
2022/11/22 07:23:45;;;;;;;0.68;0.68;;;8.00;99.90;;;;;;5112758;28;20024;-83
2022/11/22 07:26:13;;;;;;;1.13;0.40;;;8.00;99.90;;;;;;5113977;28;20104;-82
2022/11/22 07:28:39;;;;;;;0.30;0.30;;;8.00;99.90;;;;;;5113542;28;20536;-83
2022/11/22 07:31:08;;;;;;;0.30;0.30;;;8.00;99.90;;;;;;5112401;28;20019;-83
2022/11/22 07:33:34;;;;;;;0.98;0.80;;;8.10;99.90;;;;;;5112602;28;20603;-83
2022/11/22 07:36:20;;;;;;;3.65;1.77;;;8.10;99.90;;;;;;5113785;28;20016;-85
2022/11/22 07:38:47;;;;;;;3.38;2.50;;;8.10;99.90;;;;;;5112556;28;20043;-83
2022/11/22 07:41:13;;;;;;;3.70;1.98;;;8.10;99.90;;;;;;5112413;28;20505;-83
2022/11/22 07:43:39;;;;;;;1.70;1.60;;;8.10;99.90;;;;;;5112516;28;20030;-82
2022/11/22 07:46:07;;;;;;;1.13;1.13;;;8.20;99.90;;;;;;5113710;28;20019;-83
2022/11/22 07:48:33;;;;;;;0.43;0.43;;;8.20;99.90;;;;;;5112533;28;20110;-82
2022/11/22 07:51:04;;;;;;;0.65;0.65;;;8.20;99.90;;;;;;5112344;28;20455;-83
2022/11/22 07:53:30;;;;;;;1.10;0.80;;;8.20;99.90;;;;;;5112412;28;20055;-82
2022/11/22 07:55:56;;;;;;;0.50;0.50;;;8.20;99.90;;;;;;5112156;28;20764;-84
2022/11/22 07:58:22;;;;;;;0.70;0.70;;;8.20;99.90;;;;;;5113533;28;20016;-84
2022/11/22 08:00:48;;;;;;;0.90;0.90;;;8.20;99.90;;;;;;5108231;28;20951;-83
2022/11/22 08:03:14;;;;;;;0.80;0.80;;;8.30;99.90;;;;;;5111081;28;20034;-82
2022/11/22 08:05:39;;;;;;;1.13;1.13;;;8.20;99.90;;;;;;5113244;28;20024;-83
2022/11/22 08:08:05;;;;;;;0.80;0.80;;;8.30;99.90;;;;;;5111539;28;20043;-83
2022/11/22 08:10:31;;;;;;;0.60;0.60;;;8.30;99.90;;;;;;5113319;28;20038;-84
2022/11/22 08:12:59;;;;;;;0.38;0.38;;;8.30;99.90;;;;;;5113306;28;20019;-84
2022/11/22 08:15:25;;;;;;;0.70;0.70;;;8.30;99.90;;;;;;5112453;28;20027;-83
2022/11/22 08:17:51;;;;;;;0.40;0.40;;;8.30;99.90;;;;;;5111825;28;20376;-78
2022/11/22 08:20:17;;;;;;;2.17;0.60;;;8.30;99.90;;;;;;5111660;28;20030;-78
2022/11/22 08:22:43;;;;;;;0.40;0.40;;;8.30;99.90;;;;;;5112828;28;20047;-78
2022/11/22 08:25:11;;;;;;;0.50;0.50;;;8.20;99.90;;;;;;5113233;28;20028;-79
2022/11/22 08:27:41;;;;;;;0.80;0.80;;;8.30;99.90;;;;;;5113213;28;20020;-79
2022/11/22 08:30:08;;;;;;;0.90;0.90;;;8.30;99.90;;;;;;5113170;28;20031;-79
2022/11/22 08:32:34;;;;;;;1.23;1.13;;;8.30;99.90;;;;;;5116242;28;20032;-80
2022/11/22 08:35:00;;;;;;;0.40;0.40;;;8.30;99.90;;;;;;5116172;28;20390;-80
2022/11/22 08:37:26;;;;;;;0.40;0.40;;;8.40;99.90;;;;;;5116037;28;20028;-80
2022/11/22 08:39:51;;;;;;;0.70;0.70;;;8.40;99.90;;;;;;5116118;28;20133;-80
2022/11/22 08:42:17;;;;;;;0.25;0.25;;;8.40;99.90;;;;;;5116092;28;20475;-80
2022/11/22 08:44:43;;;;;;;0.77;0.52;;;8.40;99.90;;;;;;5117199;28;20030;-79
2022/11/22 08:47:08;;;;;;;0.65;0.65;;;8.40;99.90;;;;;;5115462;28;20475;-79
2022/11/22 08:49:34;;;;;;;0.80;0.80;;;8.40;99.90;;;;;;5115405;28;20107;-79
2022/11/22 08:52:00;;;;;;;0.32;0.32;;;8.30;99.90;;;;;;5114942;28;20475;-79
2022/11/22 08:54:25;;;;;;;0.80;0.80;;;8.40;99.90;;;;;;5100503;28;20020;-80
2022/11/22 08:56:51;;;;;;;0.60;0.60;;;8.40;99.90;;;;;;5090257;28;20031;-80
2022/11/22 08:59:17;;;;;;;1.10;1.10;;;8.40;99.90;;;;;;5106665;28;20510;-79
2022/11/22 09:01:42;;;;;;;0.80;0.80;;;8.40;99.90;;;;;;5110812;28;20377;-79
2022/11/22 09:04:08;;;;;;;0.60;0.60;;;8.50;99.90;;;;;;5112131;28;20026;-80
2022/11/22 09:06:34;;;;;;;1.02;0.80;;;8.50;99.90;;;;;;5113503;28;20217;-79
2022/11/22 09:09:00;;;;;;;0.50;0.50;;;8.40;99.90;;;;;;5116501;28;20086;-79
2022/11/22 09:11:25;;;;;;;0.80;0.80;;;8.50;99.90;;;;;;5115381;28;20501;-83
2022/11/22 09:13:51;;;;;;;0.30;0.30;;;8.50;99.90;;;;;;5115338;28;20015;-82
2022/11/22 09:16:19;;;;;;;0.80;0.75;;;8.50;99.90;;;;;;5115197;28;20055;-83
2022/11/22 09:18:45;;;;;;;0.45;0.45;;;8.50;99.90;;;;;;5114951;28;20054;-83
2022/11/22 09:21:19;;;;;;;0.85;0.38;;;8.40;99.90;;;;;;5114983;28;20034;-82
2022/11/22 09:23:48;;;;;;;0.90;0.30;;;8.50;99.90;;;;;;5116285;28;20027;-79
2022/11/22 09:26:16;;;;;;;0.30;0.30;;;8.40;99.90;;;;;;5114673;28;20537;-79
2022/11/22 09:28:42;;;;;;;0.20;0.20;;;8.50;99.90;;;;;;5115921;28;20061;-78
2022/11/22 09:31:14;;;;;;;0.32;0.32;;;8.50;99.90;;;;;;5114674;28;20096;-79
2022/11/22 09:33:40;;;;;;;;;;;8.50;99.90;;;;;;5114926;28;20478;-78
2022/11/22 09:36:09;;;;;;;0.40;0.40;;;8.50;99.90;;;;;;5114520;28;19908;-79
2022/11/22 09:38:36;;;;;;;0.40;0.40;;;8.50;99.90;;;;;;5115661;28;20020;-79
2022/11/22 09:41:15;;;;;;;0.32;0.32;;;8.50;99.90;;;;;;5114319;28;20039;-78
2022/11/22 09:44:03;;;;;;;0.30;0.30;;;8.50;99.90;;;;;;5114854;28;20041;-79
2022/11/22 09:47:10;;;;;;;0.30;0.30;;;8.60;99.90;;;;;;5114399;28;20034;-78
2022/11/22 09:49:55;;;;;;;0.40;0.40;;;8.60;99.90;;;;;;5113157;28;20028;-79
2022/11/22 09:52:45;;;;;;;0.30;0.30;;;8.60;99.90;;;;;;5115600;28;20019;-80
2022/11/22 09:55:17;;;;;;;0.45;0.45;;;8.70;99.90;;;;;;5114265;28;20031;-79
2022/11/22 09:57:59;;;;;;;0.60;0.60;;;8.70;99.90;;;;;;5114251;28;20028;-80
2022/11/22 10:00:30;;;;;;;0.88;0.38;;;8.70;99.90;;;;;;5114033;28;20028;-80
2022/11/22 10:03:10;;;;;;;1.85;0.65;;;8.70;99.90;;;;;;5114097;28;20036;-78
2022/11/22 10:05:50;;;;;;;0.20;0.20;;;8.70;99.90;;;;;;5114047;28;20016;-78
2022/11/22 10:08:39;;;;;;;1.23;0.30;;;8.70;99.90;;;;;;5114062;28;20521;-78
2022/11/22 10:11:13;;;;;;;0.28;0.28;;;8.70;99.90;;;;;;5113943;28;20072;-77
2022/11/22 10:13:49;;;;;;;0.88;0.45;;;8.70;99.90;;;;;;5114020;28;20424;-78
2022/11/22 10:16:42;;;;;;;0.30;0.30;;;8.70;99.90;;;;;;5115177;28;20016;-78
2022/11/22 10:19:17;;;;;;;0.20;0.20;;;8.70;99.90;;;;;;5114795;28;20024;-78
2022/11/22 10:21:46;;;;;;;0.20;0.20;;;8.80;99.90;;;;;;5113957;28;20031;-78
2022/11/22 10:24:15;;;;;;;0.32;0.32;;;8.80;99.90;;;;;;5108610;28;20020;-77
2022/11/22 10:26:41;;;;;;;0.30;0.30;;;8.80;99.90;;;;;;5102575;28;20107;-78
2022/11/22 10:29:26;;;;;;;0.30;0.30;;;8.80;99.90;;;;;;5104860;28;20046;-84
2022/11/22 10:32:15;;;;;;;3.08;0.40;;;8.70;99.90;;;;;;5103024;28;20031;-85
2022/11/22 10:34:53;;;;;;;1.25;0.35;;;8.70;99.90;;;;;;5092591;28;20043;-85
2022/11/22 10:37:51;;;;;;;0.28;0.28;;;8.70;99.90;;;;;;5110193;28;20521;-85
2022/11/22 10:40:17;;;;;;;0.30;0.30;;;8.70;99.90;;;;;;5111101;28;20114;-84
2022/11/22 10:43:05;;;;;;;0.50;0.50;;;8.70;99.90;;;;;;5111581;28;20177;-84
2022/11/22 10:46:04;;;;;;;0.30;0.30;;;8.70;99.90;;;;;;5112599;28;20024;-83
2022/11/22 10:48:48;;;;;;;0.45;0.45;;;8.70;99.90;;;;;;5100943;28;20044;-84
2022/11/22 10:51:22;;;;;;;0.77;0.50;;;8.70;99.90;;;;;;5104991;28;20024;-84
2022/11/22 10:54:34;;;;;;;0.65;0.65;;;8.70;99.90;;;;;;5112055;28;20016;-85
2022/11/22 10:57:27;;;;;;;0.30;0.30;;;8.70;99.90;;;;;;5114037;28;20479;-85
2022/11/22 11:00:12;;;;;;;0.40;0.40;;;8.70;99.90;;;;;;5098496;28;20655;-85
2022/11/22 11:02:50;;;;;;;0.57;0.57;;;8.70;99.90;;;;;;5112427;28;20081;-86
2022/11/22 11:05:22;;;;;;;0.40;0.40;;;8.70;99.90;;;;;;5111997;28;20035;-86
2022/11/22 11:07:51;;;;;;;0.30;0.30;;;8.70;99.90;;;;;;5113417;28;20043;-87
2022/11/22 11:10:30;;;;;;;0.30;0.30;;;8.80;99.90;;;;;;5114581;28;20031;-86
2022/11/22 11:13:00;;;;;;;0.30;0.30;;;8.80;99.90;;;;;;5114282;28;20035;-86
2022/11/22 11:15:38;;;;;;;0.30;0.30;;;8.80;99.90;;;;;;5113259;28;20030;-86
2022/11/22 11:18:14;;;;;;;0.40;0.40;;;8.80;99.90;;;;;;5113157;28;20096;-86
2022/11/22 11:20:41;;;;;;;0.30;0.30;;;8.80;99.90;;;;;;5092707;28;20052;-85
2022/11/22 11:23:09;;;;;;;0.38;0.38;;;8.90;99.90;;;;;;5112331;28;20031;-84
2022/11/22 11:25:41;;;;;;;0.70;0.70;;;8.90;99.90;;;;;;5114122;28;20019;-85
2022/11/22 11:28:11;;;;;;;0.98;0.95;;;8.90;99.90;;;;;;5114087;28;20106;-84
2022/11/22 11:31:06;;;;;;;0.50;0.50;;;9.00;99.90;;;;;;5114121;28;20027;-85
2022/11/22 11:33:36;;;;;;;4.03;0.40;;;9.00;99.90;;;;;;5111991;28;20496;-84
2022/11/22 11:36:06;;;;;;;0.40;0.40;;;9.00;99.90;;;;;;5112562;28;20027;-84
2022/11/22 11:38:43;;;;;;;1.75;0.40;;;9.10;99.90;;;;;;5113667;28;20037;-84
2022/11/22 11:41:21;;;;;;;0.55;0.55;;;9.10;99.90;;;;;;5112551;28;20471;-83
2022/11/22 11:43:47;;;;;;;0.40;0.40;;;9.20;99.90;;;;;;5112478;28;20632;-83
2022/11/22 11:46:22;;;;;;;1.25;0.50;;;9.20;99.90;;;;;;5112475;28;20671;-84
2022/11/22 11:48:49;;;;;;;0.60;0.60;;;9.20;99.90;;;;;;5113595;28;20475;-83
2022/11/22 11:51:23;;;;;;;0.45;0.45;;;9.20;99.90;;;;;;5113740;28;20501;-84
2022/11/22 11:54:02;;;;;;;0.40;0.40;;;9.20;99.90;;;;;;5112390;28;20028;-84
2022/11/22 11:56:39;;;;;;;1.30;0.52;;;9.20;99.90;;;;;;5112579;28;20376;-86
2022/11/22 11:59:22;;;;;;;0.30;0.30;;;9.20;99.90;;;;;;5100009;28;20028;-84
2022/11/22 12:01:54;;;;;;;0.30;0.30;;;9.20;99.90;;;;;;5093137;28;20019;-86
2022/11/22 12:04:23;;;;;;;0.50;0.50;;;9.10;99.90;;;;;;5093474;28;20024;-85
2022/11/22 12:06:58;;;;;;;0.40;0.40;;;9.10;99.90;;;;;;5092698;28;20052;-83
2022/11/22 12:09:34;;;;;;;0.57;0.57;;;9.10;99.90;;;;;;5091759;28;20051;-86
2022/11/22 12:12:26;;;;;;;0.40;0.40;;;9.10;99.90;;;;;;5091776;28;20024;-86
2022/11/22 12:15:34;;;;;;;1.08;0.68;;;9.10;99.90;;;;;;5076277;28;20168;-86
2022/11/22 12:18:06;;;;;;;1.70;1.27;;;9.20;99.90;;;;;;5081643;28;20043;-87
2022/11/22 12:20:50;;;;;;;0.52;0.52;;;9.20;99.90;;;;;;5092860;28;20028;-88
2022/11/22 12:23:22;;;;;;;1.10;0.60;;;9.10;99.90;;;;;;5093340;28;20470;-87
2022/11/22 12:25:50;;;;;;;1.15;1.05;;;9.20;99.90;;;;;;5093215;28;20494;-86
2022/11/22 12:28:18;;;;;;;1.33;0.75;;;9.10;99.90;;;;;;5092557;28;20070;-87
2022/11/22 12:30:50;;;;;;;1.17;0.93;;;9.10;99.90;;;;;;5093174;28;20032;-86
2022/11/22 12:33:28;;;;;;;0.50;0.50;;;9.00;99.90;;;;;;5092089;28;20028;-86
2022/11/22 12:35:55;;;;;;;1.45;0.80;;;9.00;99.90;;;;;;5126125;28;20028;-86
2022/11/22 12:38:30;;;;;;;0.40;0.40;;;9.00;99.90;;;;;;5126140;27;20024;-87
2022/11/22 12:41:01;;;;;;;0.80;0.80;;;8.90;99.90;;;;;;5091917;28;20024;-86
2022/11/22 12:44:05;;;;;;;1.05;0.93;;;8.90;99.90;;;;;;5092026;28;20027;-87
2022/11/22 12:46:37;;;;;;;0.70;0.70;;;8.90;99.90;;;;;;5091814;28;20024;-87
2022/11/22 12:49:10;;;;;;;1.00;0.55;;;8.80;99.90;;;;;;5091906;28;20032;-87
2022/11/22 12:51:49;;;;;;;0.90;0.90;;;8.80;99.90;;;;;;5091810;28;20456;-87
2022/11/22 12:54:44;;;;;;;0.88;0.60;;;8.80;99.90;;;;;;5092830;28;20035;-87
2022/11/22 12:57:23;;;;;;;1.92;0.70;;;8.70;99.90;;;;;;5091554;28;20027;-86
2022/11/22 12:59:52;;;;;;;0.55;0.55;;;8.70;99.90;;;;;;5091831;28;20024;-88
2022/11/22 13:02:21;;;;;;;0.40;0.40;;;8.70;99.90;;;;;;5093270;28;20020;-87
2022/11/22 13:04:57;;;;;;;0.60;0.52;;;8.70;99.90;;;;;;5125926;27;20032;-86
2022/11/22 13:07:28;;;;;;;1.33;1.23;;;8.70;99.90;;;;;;5093021;28;20016;-87
2022/11/22 13:10:04;;;;;;;1.50;1.30;;;8.70;99.90;;;;;;5125894;27;20040;-87
2022/11/22 13:12:36;;;;;;;1.80;1.70;;;8.70;99.90;;;;;;5091777;28;20028;-86
2022/11/22 13:15:03;;;;;;;;;;;8.60;99.90;;;;;;5091645;28;20028;-87
2022/11/22 13:17:34;;;;;;;0.30;0.30;;;8.60;99.90;;;;;;5091624;28;19953;-87
2022/11/22 13:20:17;;;;;;;0.40;0.40;;;8.60;99.90;;;;;;5128877;27;20055;-85
2022/11/22 13:23:11;;;;;;;0.50;0.50;;;8.60;99.90;;;;;;5094938;28;20028;-87
2022/11/22 13:26:04;;;;;;;0.40;0.40;;;8.60;99.90;;;;;;5094902;28;20035;-85
2022/11/22 13:28:35;;;;;;;0.80;0.80;;;8.60;99.90;;;;;;5096229;28;20027;-85
2022/11/22 13:31:13;;;;;;;0.47;0.47;;;8.60;99.90;;;;;;5094882;28;20036;-86